DAUH/HME METAR and TAF weather

Enter ICAO airport designator
Station Type Date Time Source
DAUH METAR 2022/06/30 13:00 UTC NOAA

DAUH 301300Z 15007KT 100V220 5000 NSC 47/// Q1009


Station Type Date Time Source
DAUH Decoded METAR 2022/06/30 13:00 UTC NOAA

Hassi-Messaoud, Algeria (DAUH) 31-40N 006-09E 142M
Jun 30, 2022 - 09:00 AM EDT / 2022.06.30 1300 UTC
Wind: from the SSE (150 degrees) at 8 MPH (7 KT) (direction variable):0
Visibility: 3 mile(s):0
Temperature: 116 F (47 C)
Pressure (altimeter): 29.80 in. Hg (1009 hPa)
ob: DAUH 301300Z 15007KT 100V220 5000 NSC 47/// Q1009
cycle: 13

Station Type Date Time Source
DAUH TAF 2022/06/30 12:33 UTC NOAA

TAF TAF DAUH 301100Z 3012/0112 20012KT 4000 SA NSC
BECMG 3013/3015 6000 NSW PROB40 3015/3018 18022KT 3000 DRSA PROB30
TEMPO 0108/0111 18015G25KT 3000 DRSA

Example: see airport list